sensor_id;sensor_type;location;lat;lon;timestamp;temperature;humidity
18101;DHT22;9177;49.156;8.142;2023-02-18T00:00:06;19.90;93.90
18101;DHT22;9177;49.156;8.142;2023-02-18T00:02:33;19.90;93.90
18101;DHT22;9177;49.156;8.142;2023-02-18T00:05:01;19.90;93.90
18101;DHT22;9177;49.156;8.142;2023-02-18T00:07:32;19.90;93.90
18101;DHT22;9177;49.156;8.142;2023-02-18T00:10:03;19.90;93.90
18101;DHT22;9177;49.156;8.142;2023-02-18T00:12:31;19.90;93.90
18101;DHT22;9177;49.156;8.142;2023-02-18T00:14:58;19.90;93.90
18101;DHT22;9177;49.156;8.142;2023-02-18T00:17:27;19.90;94.20
18101;DHT22;9177;49.156;8.142;2023-02-18T00:19:54;19.90;93.90
18101;DHT22;9177;49.156;8.142;2023-02-18T00:22:23;19.90;93.90
18101;DHT22;9177;49.156;8.142;2023-02-18T00:24:50;19.90;93.90
18101;DHT22;9177;49.156;8.142;2023-02-18T00:27:17;19.90;93.90
18101;DHT22;9177;49.156;8.142;2023-02-18T00:29:44;19.90;93.90
18101;DHT22;9177;49.156;8.142;2023-02-18T00:32:11;19.90;93.90
18101;DHT22;9177;49.156;8.142;2023-02-18T00:34:38;19.90;93.90
18101;DHT22;9177;49.156;8.142;2023-02-18T00:37:04;19.90;93.90
18101;DHT22;9177;49.156;8.142;2023-02-18T00:39:35;19.90;93.90
18101;DHT22;9177;49.156;8.142;2023-02-18T00:42:02;19.80;93.90
18101;DHT22;9177;49.156;8.142;2023-02-18T00:44:29;19.80;93.90
18101;DHT22;9177;49.156;8.142;2023-02-18T00:46:55;19.80;93.90
18101;DHT22;9177;49.156;8.142;2023-02-18T00:49:22;19.80;94.00
18101;DHT22;9177;49.156;8.142;2023-02-18T00:51:49;19.80;94.00
18101;DHT22;9177;49.156;8.142;2023-02-18T00:54:16;19.80;94.00
18101;DHT22;9177;49.156;8.142;2023-02-18T00:56:44;19.80;94.00
18101;DHT22;9177;49.156;8.142;2023-02-18T00:59:11;19.80;94.00
18101;DHT22;9177;49.156;8.142;2023-02-18T01:01:38;19.80;94.00
18101;DHT22;9177;49.156;8.142;2023-02-18T01:04:05;19.80;94.00
18101;DHT22;9177;49.156;8.142;2023-02-18T01:06:31;19.80;94.00
18101;DHT22;9177;49.156;8.142;2023-02-18T01:08:58;19.80;94.00
18101;DHT22;9177;49.156;8.142;2023-02-18T01:11:25;19.80;94.10
18101;DHT22;9177;49.156;8.142;2023-02-18T01:13:54;19.80;94.10
18101;DHT22;9177;49.156;8.142;2023-02-18T01:16:21;19.80;94.00
18101;DHT22;9177;49.156;8.142;2023-02-18T01:18:48;19.80;94.10
18101;DHT22;9177;49.156;8.142;2023-02-18T01:21:16;19.80;94.10
18101;DHT22;9177;49.156;8.142;2023-02-18T01:23:43;19.80;94.10
18101;DHT22;9177;49.156;8.142;2023-02-18T01:26:10;19.80;94.10
18101;DHT22;9177;49.156;8.142;2023-02-18T01:28:38;19.80;94.10
18101;DHT22;9177;49.156;8.142;2023-02-18T01:31:08;19.80;94.10
18101;DHT22;9177;49.156;8.142;2023-02-18T01:33:35;19.80;94.10
18101;DHT22;9177;49.156;8.142;2023-02-18T01:36:03;19.80;94.20
18101;DHT22;9177;49.156;8.142;2023-02-18T01:38:30;19.80;94.10
18101;DHT22;9177;49.156;8.142;2023-02-18T01:40:57;19.80;94.20
18101;DHT22;9177;49.156;8.142;2023-02-18T01:43:24;19.80;94.10
18101;DHT22;9177;49.156;8.142;2023-02-18T01:46:03;19.80;94.20
18101;DHT22;9177;49.156;8.142;2023-02-18T01:48:35;19.80;94.10
18101;DHT22;9177;49.156;8.142;2023-02-18T01:51:07;19.70;94.10
18101;DHT22;9177;49.156;8.142;2023-02-18T01:53:39;19.80;94.10
18101;DHT22;9177;49.156;8.142;2023-02-18T01:56:11;19.70;94.10
18101;DHT22;9177;49.156;8.142;2023-02-18T01:58:40;19.70;94.10
18101;DHT22;9177;49.156;8.142;2023-02-18T02:01:08;19.70;94.10
18101;DHT22;9177;49.156;8.142;2023-02-18T02:03:37;19.70;94.10
18101;DHT22;9177;49.156;8.142;2023-02-18T02:06:09;19.70;94.10
18101;DHT22;9177;49.156;8.142;2023-02-18T02:08:38;19.70;94.20
18101;DHT22;9177;49.156;8.142;2023-02-18T02:11:16;19.70;94.20
18101;DHT22;9177;49.156;8.142;2023-02-18T02:13:57;19.70;94.20
18101;DHT22;9177;49.156;8.142;2023-02-18T02:16:30;19.70;94.20
18101;DHT22;9177;49.156;8.142;2023-02-18T02:19:25;19.70;94.20
18101;DHT22;9177;49.156;8.142;2023-02-18T02:22:13;19.70;94.20
18101;DHT22;9177;49.156;8.142;2023-02-18T02:25:09;19.70;94.20
18101;DHT22;9177;49.156;8.142;2023-02-18T02:28:06;19.70;94.20
18101;DHT22;9177;49.156;8.142;2023-02-18T02:30:58;19.70;94.20
18101;DHT22;9177;49.156;8.142;2023-02-18T02:34:00;19.70;94.20
18101;DHT22;9177;49.156;8.142;2023-02-18T02:36:37;19.70;94.20
18101;DHT22;9177;49.156;8.142;2023-02-18T02:39:13;19.70;94.20
18101;DHT22;9177;49.156;8.142;2023-02-18T02:41:50;19.70;94.20
18101;DHT22;9177;49.156;8.142;2023-02-18T02:44:20;19.70;94.20
18101;DHT22;9177;49.156;8.142;2023-02-18T02:46:51;19.70;94.20
18101;DHT22;9177;49.156;8.142;2023-02-18T02:49:31;19.70;94.20
18101;DHT22;9177;49.156;8.142;2023-02-18T02:52:04;19.70;94.10
18101;DHT22;9177;49.156;8.142;2023-02-18T02:54:31;19.70;94.20
18101;DHT22;9177;49.156;8.142;2023-02-18T03:00:07;19.60;94.20
18101;DHT22;9177;49.156;8.142;2023-02-18T03:02:54;19.60;94.20
18101;DHT22;9177;49.156;8.142;2023-02-18T03:05:34;19.60;94.20
18101;DHT22;9177;49.156;8.142;2023-02-18T03:08:16;19.60;94.20
18101;DHT22;9177;49.156;8.142;2023-02-18T03:10:54;19.60;94.20
18101;DHT22;9177;49.156;8.142;2023-02-18T03:13:36;19.60;94.20
18101;DHT22;9177;49.156;8.142;2023-02-18T03:16:12;19.60;94.20
18101;DHT22;9177;49.156;8.142;2023-02-18T03:18:44;19.60;94.20
18101;DHT22;9177;49.156;8.142;2023-02-18T03:21:15;19.60;94.20
18101;DHT22;9177;49.156;8.142;2023-02-18T03:23:51;19.60;94.20
18101;DHT22;9177;49.156;8.142;2023-02-18T03:26:20;19.60;94.20
18101;DHT22;9177;49.156;8.142;2023-02-18T03:28:48;19.60;94.20
18101;DHT22;9177;49.156;8.142;2023-02-18T03:31:19;19.60;94.20
18101;DHT22;9177;49.156;8.142;2023-02-18T03:33:51;19.60;94.20
18101;DHT22;9177;49.156;8.142;2023-02-18T03:36:21;19.60;94.20
18101;DHT22;9177;49.156;8.142;2023-02-18T03:38:55;19.60;94.20
18101;DHT22;9177;49.156;8.142;2023-02-18T03:41:24;19.60;94.20
18101;DHT22;9177;49.156;8.142;2023-02-18T03:43:53;19.60;94.20
18101;DHT22;9177;49.156;8.142;2023-02-18T03:46:20;19.60;94.20
18101;DHT22;9177;49.156;8.142;2023-02-18T03:48:47;19.60;94.20
18101;DHT22;9177;49.156;8.142;2023-02-18T03:51:14;19.50;94.20
18101;DHT22;9177;49.156;8.142;2023-02-18T03:53:41;19.60;94.20
18101;DHT22;9177;49.156;8.142;2023-02-18T03:56:09;19.60;94.20
18101;DHT22;9177;49.156;8.142;2023-02-18T03:58:37;19.50;94.20
18101;DHT22;9177;49.156;8.142;2023-02-18T04:01:04;19.60;94.20
18101;DHT22;9177;49.156;8.142;2023-02-18T04:03:31;19.50;94.10
18101;DHT22;9177;49.156;8.142;2023-02-18T04:05:59;19.60;94.20
18101;DHT22;9177;49.156;8.142;2023-02-18T04:08:26;19.50;94.10
18101;DHT22;9177;49.156;8.142;2023-02-18T04:10:53;19.50;94.10
18101;DHT22;9177;49.156;8.142;2023-02-18T04:13:23;19.50;94.10
18101;DHT22;9177;49.156;8.142;2023-02-18T04:15:50;19.60;94.10
18101;DHT22;9177;49.156;8.142;2023-02-18T04:18:18;19.50;94.10
18101;DHT22;9177;49.156;8.142;2023-02-18T04:20:45;19.50;94.10
18101;DHT22;9177;49.156;8.142;2023-02-18T04:23:12;19.50;94.10
18101;DHT22;9177;49.156;8.142;2023-02-18T04:25:39;19.50;94.50
18101;DHT22;9177;49.156;8.142;2023-02-18T04:28:13;19.50;94.10
18101;DHT22;9177;49.156;8.142;2023-02-18T04:30:41;19.50;94.10
18101;DHT22;9177;49.156;8.142;2023-02-18T04:33:08;19.50;94.10
18101;DHT22;9177;49.156;8.142;2023-02-18T04:35:35;19.50;94.10
18101;DHT22;9177;49.156;8.142;2023-02-18T04:38:05;19.50;94.10
18101;DHT22;9177;49.156;8.142;2023-02-18T04:40:32;19.50;94.10
18101;DHT22;9177;49.156;8.142;2023-02-18T04:42:59;19.50;94.10
18101;DHT22;9177;49.156;8.142;2023-02-18T04:45:26;19.50;94.10
18101;DHT22;9177;49.156;8.142;2023-02-18T04:47:55;19.50;94.10
18101;DHT22;9177;49.156;8.142;2023-02-18T04:50:22;19.50;94.10
18101;DHT22;9177;49.156;8.142;2023-02-18T04:52:49;19.50;94.10
18101;DHT22;9177;49.156;8.142;2023-02-18T04:55:19;19.50;94.10
18101;DHT22;9177;49.156;8.142;2023-02-18T04:57:47;19.50;94.10
18101;DHT22;9177;49.156;8.142;2023-02-18T05:00:16;19.50;94.10
18101;DHT22;9177;49.156;8.142;2023-02-18T05:02:43;19.50;94.10
18101;DHT22;9177;49.156;8.142;2023-02-18T05:05:13;19.50;94.10
18101;DHT22;9177;49.156;8.142;2023-02-18T05:07:40;19.50;94.10
18101;DHT22;9177;49.156;8.142;2023-02-18T05:10:08;19.50;94.10
18101;DHT22;9177;49.156;8.142;2023-02-18T05:12:35;19.50;94.10
18101;DHT22;9177;49.156;8.142;2023-02-18T05:15:02;19.50;94.00
18101;DHT22;9177;49.156;8.142;2023-02-18T05:17:29;19.50;94.00
18101;DHT22;9177;49.156;8.142;2023-02-18T05:19:56;19.50;94.00
18101;DHT22;9177;49.156;8.142;2023-02-18T05:22:25;19.50;94.10
18101;DHT22;9177;49.156;8.142;2023-02-18T05:24:52;19.50;94.10
18101;DHT22;9177;49.156;8.142;2023-02-18T05:27:18;19.50;94.10
18101;DHT22;9177;49.156;8.142;2023-02-18T05:29:45;19.50;94.10
18101;DHT22;9177;49.156;8.142;2023-02-18T05:32:12;19.50;94.10
18101;DHT22;9177;49.156;8.142;2023-02-18T05:34:39;19.50;94.10
18101;DHT22;9177;49.156;8.142;2023-02-18T05:37:07;19.50;94.10
18101;DHT22;9177;49.156;8.142;2023-02-18T05:39:36;19.50;94.10
18101;DHT22;9177;49.156;8.142;2023-02-18T05:42:03;19.40;94.00
18101;DHT22;9177;49.156;8.142;2023-02-18T05:44:30;19.50;94.10
18101;DHT22;9177;49.156;8.142;2023-02-18T05:46:58;19.40;94.00
18101;DHT22;9177;49.156;8.142;2023-02-18T05:49:25;19.50;94.10
18101;DHT22;9177;49.156;8.142;2023-02-18T05:51:52;19.40;94.00
18101;DHT22;9177;49.156;8.142;2023-02-18T05:54:19;19.40;94.00
18101;DHT22;9177;49.156;8.142;2023-02-18T05:56:47;19.40;94.00
18101;DHT22;9177;49.156;8.142;2023-02-18T05:59:14;19.50;94.00
18101;DHT22;9177;49.156;8.142;2023-02-18T06:01:41;19.40;94.00
18101;DHT22;9177;49.156;8.142;2023-02-18T06:04:09;19.50;94.00
18101;DHT22;9177;49.156;8.142;2023-02-18T06:06:36;19.50;94.00
18101;DHT22;9177;49.156;8.142;2023-02-18T06:09:04;19.50;94.00
18101;DHT22;9177;49.156;8.142;2023-02-18T06:11:32;19.40;94.00
18101;DHT22;9177;49.156;8.142;2023-02-18T06:14:00;19.40;94.00
18101;DHT22;9177;49.156;8.142;2023-02-18T06:16:27;19.40;94.00
18101;DHT22;9177;49.156;8.142;2023-02-18T06:18:54;19.40;94.00
18101;DHT22;9177;49.156;8.142;2023-02-18T06:21:21;19.40;94.00
18101;DHT22;9177;49.156;8.142;2023-02-18T06:23:48;19.40;94.00
18101;DHT22;9177;49.156;8.142;2023-02-18T06:26:15;19.40;94.00
18101;DHT22;9177;49.156;8.142;2023-02-18T06:28:42;19.40;94.00
18101;DHT22;9177;49.156;8.142;2023-02-18T06:31:10;19.40;94.00
18101;DHT22;9177;49.156;8.142;2023-02-18T06:33:37;19.40;94.10
18101;DHT22;9177;49.156;8.142;2023-02-18T06:36:06;19.40;94.00
18101;DHT22;9177;49.156;8.142;2023-02-18T06:38:34;19.40;94.00
18101;DHT22;9177;49.156;8.142;2023-02-18T06:41:01;19.40;94.10
18101;DHT22;9177;49.156;8.142;2023-02-18T06:43:28;19.40;94.10
18101;DHT22;9177;49.156;8.142;2023-02-18T06:45:55;19.40;94.00
18101;DHT22;9177;49.156;8.142;2023-02-18T06:48:24;19.40;94.10
18101;DHT22;9177;49.156;8.142;2023-02-18T06:50:50;19.40;94.10
18101;DHT22;9177;49.156;8.142;2023-02-18T06:53:18;19.40;94.10
18101;DHT22;9177;49.156;8.142;2023-02-18T06:55:45;19.40;94.10
18101;DHT22;9177;49.156;8.142;2023-02-18T06:58:13;19.40;94.10
18101;DHT22;9177;49.156;8.142;2023-02-18T07:00:40;19.40;94.10
18101;DHT22;9177;49.156;8.142;2023-02-18T07:03:07;19.40;94.10
18101;DHT22;9177;49.156;8.142;2023-02-18T07:05:37;19.40;94.10
18101;DHT22;9177;49.156;8.142;2023-02-18T07:08:04;19.30;94.10
18101;DHT22;9177;49.156;8.142;2023-02-18T07:10:31;19.30;94.10
18101;DHT22;9177;49.156;8.142;2023-02-18T07:12:58;19.30;94.10
18101;DHT22;9177;49.156;8.142;2023-02-18T07:15:25;19.30;94.10
18101;DHT22;9177;49.156;8.142;2023-02-18T07:17:53;19.30;94.20
18101;DHT22;9177;49.156;8.142;2023-02-18T07:20:21;19.30;94.10
18101;DHT22;9177;49.156;8.142;2023-02-18T07:22:49;19.30;94.20
18101;DHT22;9177;49.156;8.142;2023-02-18T07:25:18;19.30;94.20
18101;DHT22;9177;49.156;8.142;2023-02-18T07:27:45;19.30;94.20
18101;DHT22;9177;49.156;8.142;2023-02-18T07:30:12;19.30;94.20
18101;DHT22;9177;49.156;8.142;2023-02-18T07:32:39;19.30;94.20
18101;DHT22;9177;49.156;8.142;2023-02-18T07:35:06;19.30;94.10
18101;DHT22;9177;49.156;8.142;2023-02-18T07:38:02;19.30;94.10
18101;DHT22;9177;49.156;8.142;2023-02-18T07:40:29;19.30;94.20
18101;DHT22;9177;49.156;8.142;2023-02-18T07:42:56;19.30;94.20
18101;DHT22;9177;49.156;8.142;2023-02-18T07:45:23;19.30;94.20
18101;DHT22;9177;49.156;8.142;2023-02-18T07:47:50;19.30;94.20
18101;DHT22;9177;49.156;8.142;2023-02-18T07:50:17;19.30;94.20
18101;DHT22;9177;49.156;8.142;2023-02-18T07:52:44;19.30;94.20
18101;DHT22;9177;49.156;8.142;2023-02-18T07:55:12;19.30;94.20
18101;DHT22;9177;49.156;8.142;2023-02-18T07:57:39;19.30;94.20
18101;DHT22;9177;49.156;8.142;2023-02-18T08:00:20;19.30;94.20
18101;DHT22;9177;49.156;8.142;2023-02-18T08:02:47;19.30;94.20
18101;DHT22;9177;49.156;8.142;2023-02-18T08:05:13;19.30;94.10
18101;DHT22;9177;49.156;8.142;2023-02-18T08:07:40;19.30;94.10
18101;DHT22;9177;49.156;8.142;2023-02-18T08:10:08;19.30;94.10
18101;DHT22;9177;49.156;8.142;2023-02-18T08:12:36;19.30;94.10
18101;DHT22;9177;49.156;8.142;2023-02-18T08:15:04;19.30;94.20
18101;DHT22;9177;49.156;8.142;2023-02-18T08:17:31;19.30;94.20
18101;DHT22;9177;49.156;8.142;2023-02-18T08:19:58;19.30;94.20
18101;DHT22;9177;49.156;8.142;2023-02-18T08:22:25;19.30;94.20
18101;DHT22;9177;49.156;8.142;2023-02-18T08:24:53;19.30;94.20
18101;DHT22;9177;49.156;8.142;2023-02-18T08:27:21;19.30;94.20
18101;DHT22;9177;49.156;8.142;2023-02-18T08:29:49;19.30;94.20
18101;DHT22;9177;49.156;8.142;2023-02-18T08:32:16;19.30;94.20
18101;DHT22;9177;49.156;8.142;2023-02-18T08:34:43;19.30;94.20
18101;DHT22;9177;49.156;8.142;2023-02-18T08:37:10;19.30;94.20
18101;DHT22;9177;49.156;8.142;2023-02-18T08:39:38;19.30;94.20
18101;DHT22;9177;49.156;8.142;2023-02-18T08:42:05;19.30;94.20
18101;DHT22;9177;49.156;8.142;2023-02-18T08:44:32;19.30;94.20
18101;DHT22;9177;49.156;8.142;2023-02-18T08:47:00;19.30;94.20
18101;DHT22;9177;49.156;8.142;2023-02-18T08:49:27;19.30;94.20
18101;DHT22;9177;49.156;8.142;2023-02-18T08:51:54;19.30;94.20
18101;DHT22;9177;49.156;8.142;2023-02-18T08:54:21;19.30;94.20
18101;DHT22;9177;49.156;8.142;2023-02-18T08:56:48;19.30;94.20
18101;DHT22;9177;49.156;8.142;2023-02-18T08:59:15;19.20;94.10
18101;DHT22;9177;49.156;8.142;2023-02-18T09:01:42;19.20;94.40
18101;DHT22;9177;49.156;8.142;2023-02-18T09:04:10;19.20;94.40
18101;DHT22;9177;49.156;8.142;2023-02-18T09:06:37;19.20;94.40
18101;DHT22;9177;49.156;8.142;2023-02-18T09:09:04;19.30;94.30
18101;DHT22;9177;49.156;8.142;2023-02-18T09:11:32;19.30;94.30
18101;DHT22;9177;49.156;8.142;2023-02-18T09:13:59;19.30;94.30
18101;DHT22;9177;49.156;8.142;2023-02-18T09:16:26;19.30;94.30
18101;DHT22;9177;49.156;8.142;2023-02-18T09:18:55;19.30;94.30
18101;DHT22;9177;49.156;8.142;2023-02-18T09:21:25;19.30;94.60
18101;DHT22;9177;49.156;8.142;2023-02-18T09:23:53;19.30;94.20
18101;DHT22;9177;49.156;8.142;2023-02-18T09:26:21;19.30;94.30
18101;DHT22;9177;49.156;8.142;2023-02-18T09:28:49;19.30;94.20
18101;DHT22;9177;49.156;8.142;2023-02-18T09:31:18;19.30;94.20
18101;DHT22;9177;49.156;8.142;2023-02-18T09:33:47;19.30;94.20
18101;DHT22;9177;49.156;8.142;2023-02-18T09:36:15;19.30;94.20
18101;DHT22;9177;49.156;8.142;2023-02-18T09:38:44;19.30;94.20
18101;DHT22;9177;49.156;8.142;2023-02-18T09:41:16;19.30;94.20
18101;DHT22;9177;49.156;8.142;2023-02-18T09:43:48;19.30;94.20
18101;DHT22;9177;49.156;8.142;2023-02-18T09:46:19;19.30;94.20
18101;DHT22;9177;49.156;8.142;2023-02-18T09:48:47;19.30;94.20
18101;DHT22;9177;49.156;8.142;2023-02-18T09:51:15;19.30;94.10
18101;DHT22;9177;49.156;8.142;2023-02-18T09:53:44;19.40;94.10
18101;DHT22;9177;49.156;8.142;2023-02-18T09:56:13;19.40;94.10
18101;DHT22;9177;49.156;8.142;2023-02-18T09:58:42;19.50;94.00
18101;DHT22;9177;49.156;8.142;2023-02-18T10:01:16;19.70;93.80
18101;DHT22;9177;49.156;8.142;2023-02-18T10:03:46;20.10;93.60
18101;DHT22;9177;49.156;8.142;2023-02-18T10:06:17;20.30;93.30
18101;DHT22;9177;49.156;8.142;2023-02-18T10:08:49;20.50;93.10
18101;DHT22;9177;49.156;8.142;2023-02-18T10:11:23;20.70;92.80
18101;DHT22;9177;49.156;8.142;2023-02-18T10:13:55;20.90;92.70
18101;DHT22;9177;49.156;8.142;2023-02-18T10:16:23;21.00;92.50
18101;DHT22;9177;49.156;8.142;2023-02-18T10:18:53;21.10;92.40
18101;DHT22;9177;49.156;8.142;2023-02-18T10:21:23;21.20;92.40
18101;DHT22;9177;49.156;8.142;2023-02-18T10:23:57;21.20;92.30
18101;DHT22;9177;49.156;8.142;2023-02-18T10:26:26;21.30;92.20
18101;DHT22;9177;49.156;8.142;2023-02-18T10:28:56;21.30;92.20
18101;DHT22;9177;49.156;8.142;2023-02-18T10:31:29;21.30;92.20
18101;DHT22;9177;49.156;8.142;2023-02-18T10:34:02;21.30;92.20
18101;DHT22;9177;49.156;8.142;2023-02-18T10:36:39;21.20;92.20
18101;DHT22;9177;49.156;8.142;2023-02-18T10:39:23;21.20;92.30
18101;DHT22;9177;49.156;8.142;2023-02-18T10:42:05;21.10;92.40
18101;DHT22;9177;49.156;8.142;2023-02-18T10:44:39;21.00;92.50
18101;DHT22;9177;49.156;8.142;2023-02-18T10:47:18;20.90;92.60
18101;DHT22;9177;49.156;8.142;2023-02-18T10:49:57;20.80;92.70
18101;DHT22;9177;49.156;8.142;2023-02-18T10:52:28;20.70;92.80
18101;DHT22;9177;49.156;8.142;2023-02-18T10:55:00;20.70;92.90
18101;DHT22;9177;49.156;8.142;2023-02-18T10:57:29;20.60;92.90
18101;DHT22;9177;49.156;8.142;2023-02-18T11:00:00;20.50;92.90
18101;DHT22;9177;49.156;8.142;2023-02-18T11:02:35;20.50;93.00
18101;DHT22;9177;49.156;8.142;2023-02-18T11:05:15;20.50;93.10
18101;DHT22;9177;49.156;8.142;2023-02-18T11:07:46;20.40;93.10
18101;DHT22;9177;49.156;8.142;2023-02-18T11:10:18;20.40;93.20
18101;DHT22;9177;49.156;8.142;2023-02-18T11:12:50;20.30;93.20
18101;DHT22;9177;49.156;8.142;2023-02-18T11:15:19;20.30;93.60
18101;DHT22;9177;49.156;8.142;2023-02-18T11:17:49;20.20;93.20
18101;DHT22;9177;49.156;8.142;2023-02-18T11:20:26;20.20;93.10
18101;DHT22;9177;49.156;8.142;2023-02-18T11:22:57;20.20;93.10
18101;DHT22;9177;49.156;8.142;2023-02-18T11:25:27;20.20;93.10
18101;DHT22;9177;49.156;8.142;2023-02-18T11:28:00;20.20;93.10
18101;DHT22;9177;49.156;8.142;2023-02-18T11:30:32;20.20;93.10
18101;DHT22;9177;49.156;8.142;2023-02-18T11:33:08;20.20;93.10
18101;DHT22;9177;49.156;8.142;2023-02-18T11:35:36;20.20;93.00
18101;DHT22;9177;49.156;8.142;2023-02-18T11:38:17;20.20;93.10
18101;DHT22;9177;49.156;8.142;2023-02-18T11:40:52;20.20;93.10
18101;DHT22;9177;49.156;8.142;2023-02-18T11:43:20;20.20;93.10
18101;DHT22;9177;49.156;8.142;2023-02-18T11:45:48;20.20;93.10
18101;DHT22;9177;49.156;8.142;2023-02-18T11:48:33;20.10;93.10
18101;DHT22;9177;49.156;8.142;2023-02-18T11:51:01;20.10;93.10
18101;DHT22;9177;49.156;8.142;2023-02-18T11:53:29;20.20;93.10
18101;DHT22;9177;49.156;8.142;2023-02-18T11:55:59;20.10;93.10
18101;DHT22;9177;49.156;8.142;2023-02-18T11:58:31;20.10;93.10
18101;DHT22;9177;49.156;8.142;2023-02-18T12:01:02;20.10;93.10
18101;DHT22;9177;49.156;8.142;2023-02-18T12:03:37;20.10;93.10
18101;DHT22;9177;49.156;8.142;2023-02-18T12:06:13;20.10;93.10
18101;DHT22;9177;49.156;8.142;2023-02-18T12:08:47;20.10;93.10
18101;DHT22;9177;49.156;8.142;2023-02-18T12:11:22;20.10;93.00
18101;DHT22;9177;49.156;8.142;2023-02-18T12:13:54;20.10;93.00
18101;DHT22;9177;49.156;8.142;2023-02-18T12:16:32;20.20;93.00
18101;DHT22;9177;49.156;8.142;2023-02-18T12:19:12;20.40;92.90
18101;DHT22;9177;49.156;8.142;2023-02-18T12:21:51;20.40;92.80
18101;DHT22;9177;49.156;8.142;2023-02-18T12:24:33;20.50;92.80
18101;DHT22;9177;49.156;8.142;2023-02-18T12:27:08;20.50;92.80
18101;DHT22;9177;49.156;8.142;2023-02-18T12:29:49;20.50;92.70
18101;DHT22;9177;49.156;8.142;2023-02-18T12:32:35;20.50;92.70
18101;DHT22;9177;49.156;8.142;2023-02-18T12:35:25;20.50;92.80
18101;DHT22;9177;49.156;8.142;2023-02-18T12:38:09;20.50;92.80
18101;DHT22;9177;49.156;8.142;2023-02-18T12:40:50;20.60;92.70
18101;DHT22;9177;49.156;8.142;2023-02-18T12:43:31;20.70;92.60
18101;DHT22;9177;49.156;8.142;2023-02-18T12:46:21;20.80;92.60
18101;DHT22;9177;49.156;8.142;2023-02-18T12:52:04;20.70;92.70
18101;DHT22;9177;49.156;8.142;2023-02-18T12:54:50;20.70;92.70
18101;DHT22;9177;49.156;8.142;2023-02-18T12:57:33;20.60;92.90
18101;DHT22;9177;49.156;8.142;2023-02-18T13:06:12;20.60;92.80
18101;DHT22;9177;49.156;8.142;2023-02-18T13:08:56;20.60;93.10
18101;DHT22;9177;49.156;8.142;2023-02-18T13:11:36;20.50;93.10
18101;DHT22;9177;49.156;8.142;2023-02-18T13:14:09;20.50;93.10
18101;DHT22;9177;49.156;8.142;2023-02-18T13:16:41;20.50;93.20
18101;DHT22;9177;49.156;8.142;2023-02-18T13:19:17;20.50;93.10
18101;DHT22;9177;49.156;8.142;2023-02-18T13:21:48;20.50;92.90
18101;DHT22;9177;49.156;8.142;2023-02-18T13:24:21;20.50;92.80
18101;DHT22;9177;49.156;8.142;2023-02-18T13:26:55;20.50;92.70
18101;DHT22;9177;49.156;8.142;2023-02-18T13:29:29;20.50;92.60
18101;DHT22;9177;49.156;8.142;2023-02-18T13:32:06;20.60;92.80
18101;DHT22;9177;49.156;8.142;2023-02-18T13:34:40;20.50;92.70
18101;DHT22;9177;49.156;8.142;2023-02-18T13:37:17;20.50;92.70
18101;DHT22;9177;49.156;8.142;2023-02-18T13:40:17;20.50;92.70
18101;DHT22;9177;49.156;8.142;2023-02-18T13:42:45;20.50;92.70
18101;DHT22;9177;49.156;8.142;2023-02-18T13:45:27;20.50;92.70
18101;DHT22;9177;49.156;8.142;2023-02-18T13:47:56;20.50;92.70
18101;DHT22;9177;49.156;8.142;2023-02-18T13:50:37;20.50;92.70
18101;DHT22;9177;49.156;8.142;2023-02-18T13:53:18;20.50;92.70
18101;DHT22;9177;49.156;8.142;2023-02-18T13:55:52;20.60;92.70
18101;DHT22;9177;49.156;8.142;2023-02-18T13:58:23;20.70;92.70
18101;DHT22;9177;49.156;8.142;2023-02-18T14:00:54;20.70;92.70
18101;DHT22;9177;49.156;8.142;2023-02-18T14:03:50;20.70;92.80
18101;DHT22;9177;49.156;8.142;2023-02-18T14:06:19;20.80;92.60
18101;DHT22;9177;49.156;8.142;2023-02-18T14:08:48;20.80;93.00
18101;DHT22;9177;49.156;8.142;2023-02-18T14:11:44;20.70;92.50
18101;DHT22;9177;49.156;8.142;2023-02-18T14:14:40;20.70;92.50
18101;DHT22;9177;49.156;8.142;2023-02-18T14:17:34;20.70;92.50
18101;DHT22;9177;49.156;8.142;2023-02-18T14:20:28;20.60;92.50
18101;DHT22;9177;49.156;8.142;2023-02-18T14:22:56;20.60;92.50
18101;DHT22;9177;49.156;8.142;2023-02-18T14:25:34;20.60;92.60
18101;DHT22;9177;49.156;8.142;2023-02-18T14:28:02;20.60;92.60
18101;DHT22;9177;49.156;8.142;2023-02-18T14:30:36;20.60;92.60
18101;DHT22;9177;49.156;8.142;2023-02-18T14:33:04;20.50;92.60
18101;DHT22;9177;49.156;8.142;2023-02-18T14:35:35;20.50;92.70
18101;DHT22;9177;49.156;8.142;2023-02-18T14:41:13;20.50;92.70
18101;DHT22;9177;49.156;8.142;2023-02-18T14:44:03;20.50;92.70
18101;DHT22;9177;49.156;8.142;2023-02-18T14:46:48;20.40;92.70
18101;DHT22;9177;49.156;8.142;2023-02-18T14:49:36;20.50;92.70
18101;DHT22;9177;49.156;8.142;2023-02-18T14:52:09;20.40;92.70
18101;DHT22;9177;49.156;8.142;2023-02-18T14:54:39;20.40;92.80
18101;DHT22;9177;49.156;8.142;2023-02-18T14:57:12;20.40;92.90
18101;DHT22;9177;49.156;8.142;2023-02-18T14:59:41;20.40;92.80
18101;DHT22;9177;49.156;8.142;2023-02-18T15:02:17;20.40;92.80
18101;DHT22;9177;49.156;8.142;2023-02-18T15:04:44;20.40;92.90
18101;DHT22;9177;49.156;8.142;2023-02-18T15:07:12;20.40;92.90
18101;DHT22;9177;49.156;8.142;2023-02-18T15:09:44;20.40;92.90
18101;DHT22;9177;49.156;8.142;2023-02-18T15:12:14;20.40;93.00
18101;DHT22;9177;49.156;8.142;2023-02-18T15:14:43;20.30;92.90
18101;DHT22;9177;49.156;8.142;2023-02-18T15:17:16;20.30;92.90
18101;DHT22;9177;49.156;8.142;2023-02-18T15:19:49;20.30;92.90
18101;DHT22;9177;49.156;8.142;2023-02-18T15:22:18;20.30;92.90
18101;DHT22;9177;49.156;8.142;2023-02-18T15:24:47;20.30;92.80
18101;DHT22;9177;49.156;8.142;2023-02-18T15:27:17;20.30;92.90
18101;DHT22;9177;49.156;8.142;2023-02-18T15:29:48;20.20;92.90
18101;DHT22;9177;49.156;8.142;2023-02-18T15:32:18;20.20;92.90
18101;DHT22;9177;49.156;8.142;2023-02-18T15:34:48;20.20;92.90
18101;DHT22;9177;49.156;8.142;2023-02-18T15:37:19;20.20;92.90
18101;DHT22;9177;49.156;8.142;2023-02-18T15:39:46;20.20;92.90
18101;DHT22;9177;49.156;8.142;2023-02-18T15:42:22;20.20;92.90
18101;DHT22;9177;49.156;8.142;2023-02-18T15:44:56;20.20;92.90
18101;DHT22;9177;49.156;8.142;2023-02-18T15:47:24;20.20;92.80
18101;DHT22;9177;49.156;8.142;2023-02-18T15:49:53;20.20;92.80
18101;DHT22;9177;49.156;8.142;2023-02-18T15:52:26;20.20;92.80
18101;DHT22;9177;49.156;8.142;2023-02-18T15:54:54;20.10;92.90
18101;DHT22;9177;49.156;8.142;2023-02-18T15:57:27;20.10;92.80
18101;DHT22;9177;49.156;8.142;2023-02-18T16:00:05;20.10;92.80
18101;DHT22;9177;49.156;8.142;2023-02-18T16:02:51;20.10;92.90
18101;DHT22;9177;49.156;8.142;2023-02-18T16:05:18;20.10;92.90
18101;DHT22;9177;49.156;8.142;2023-02-18T16:07:51;20.10;92.90
18101;DHT22;9177;49.156;8.142;2023-02-18T16:10:21;20.10;92.90
18101;DHT22;9177;49.156;8.142;2023-02-18T16:12:50;20.10;92.90
18101;DHT22;9177;49.156;8.142;2023-02-18T16:15:23;20.10;92.90
18101;DHT22;9177;49.156;8.142;2023-02-18T16:17:52;20.00;92.90
18101;DHT22;9177;49.156;8.142;2023-02-18T16:20:26;20.00;92.90
18101;DHT22;9177;49.156;8.142;2023-02-18T16:22:59;20.00;92.90
18101;DHT22;9177;49.156;8.142;2023-02-18T16:25:35;20.00;92.90